sensor_id;sensor_type;location;lat;lon;timestamp;temperature;humidity
15556;DHT22;7879;48.660;9.116;2023-11-19T00:00:34;6.90;99.90
15556;DHT22;7879;48.660;9.116;2023-11-19T00:03:02;7.00;99.90
15556;DHT22;7879;48.660;9.116;2023-11-19T00:05:29;6.90;99.90
15556;DHT22;7879;48.660;9.116;2023-11-19T00:07:56;6.90;99.90
15556;DHT22;7879;48.660;9.116;2023-11-19T00:10:22;6.90;99.90
15556;DHT22;7879;48.660;9.116;2023-11-19T00:12:49;6.90;99.90
15556;DHT22;7879;48.660;9.116;2023-11-19T00:15:17;6.90;99.90
15556;DHT22;7879;48.660;9.116;2023-11-19T00:17:46;6.90;99.90
15556;DHT22;7879;48.660;9.116;2023-11-19T00:20:16;6.90;99.90
15556;DHT22;7879;48.660;9.116;2023-11-19T00:22:44;6.90;99.90
15556;DHT22;7879;48.660;9.116;2023-11-19T00:25:20;6.90;99.90
15556;DHT22;7879;48.660;9.116;2023-11-19T00:27:48;7.00;99.90
15556;DHT22;7879;48.660;9.116;2023-11-19T00:30:17;7.00;99.90
15556;DHT22;7879;48.660;9.116;2023-11-19T00:32:44;7.10;99.90
15556;DHT22;7879;48.660;9.116;2023-11-19T00:35:37;7.10;99.90
15556;DHT22;7879;48.660;9.116;2023-11-19T00:38:17;7.10;99.90
15556;DHT22;7879;48.660;9.116;2023-11-19T00:41:00;7.10;99.90
15556;DHT22;7879;48.660;9.116;2023-11-19T00:43:29;7.10;99.90
15556;DHT22;7879;48.660;9.116;2023-11-19T00:45:56;7.20;99.90
15556;DHT22;7879;48.660;9.116;2023-11-19T00:48:23;7.20;99.90
15556;DHT22;7879;48.660;9.116;2023-11-19T00:50:50;7.30;99.90
15556;DHT22;7879;48.660;9.116;2023-11-19T00:53:17;7.30;99.90
15556;DHT22;7879;48.660;9.116;2023-11-19T00:55:43;7.30;99.90
15556;DHT22;7879;48.660;9.116;2023-11-19T00:58:13;7.30;99.90
15556;DHT22;7879;48.660;9.116;2023-11-19T01:00:40;7.40;99.90
15556;DHT22;7879;48.660;9.116;2023-11-19T01:03:06;7.40;99.90
15556;DHT22;7879;48.660;9.116;2023-11-19T01:05:34;7.40;99.90
15556;DHT22;7879;48.660;9.116;2023-11-19T01:08:01;7.50;99.90
15556;DHT22;7879;48.660;9.116;2023-11-19T01:10:28;7.60;99.90
15556;DHT22;7879;48.660;9.116;2023-11-19T01:12:55;7.60;99.90
15556;DHT22;7879;48.660;9.116;2023-11-19T01:15:22;7.60;99.90
15556;DHT22;7879;48.660;9.116;2023-11-19T01:17:49;7.60;99.90
15556;DHT22;7879;48.660;9.116;2023-11-19T01:20:19;7.60;99.90
15556;DHT22;7879;48.660;9.116;2023-11-19T01:22:48;7.60;99.90
15556;DHT22;7879;48.660;9.116;2023-11-19T01:25:16;7.70;99.90
15556;DHT22;7879;48.660;9.116;2023-11-19T01:27:43;7.70;99.90
15556;DHT22;7879;48.660;9.116;2023-11-19T01:30:10;7.70;99.90
15556;DHT22;7879;48.660;9.116;2023-11-19T01:32:40;7.70;99.90
15556;DHT22;7879;48.660;9.116;2023-11-19T01:35:08;7.70;99.90
15556;DHT22;7879;48.660;9.116;2023-11-19T01:37:35;7.70;99.90
15556;DHT22;7879;48.660;9.116;2023-11-19T01:40:03;7.80;99.90
15556;DHT22;7879;48.660;9.116;2023-11-19T01:42:38;7.80;99.90
15556;DHT22;7879;48.660;9.116;2023-11-19T01:48:57;7.80;99.90
15556;DHT22;7879;48.660;9.116;2023-11-19T01:51:24;7.90;99.90
15556;DHT22;7879;48.660;9.116;2023-11-19T01:53:52;7.90;99.90
15556;DHT22;7879;48.660;9.116;2023-11-19T01:56:20;7.90;99.90
15556;DHT22;7879;48.660;9.116;2023-11-19T01:58:48;7.80;99.90
15556;DHT22;7879;48.660;9.116;2023-11-19T02:01:16;7.90;99.90
15556;DHT22;7879;48.660;9.116;2023-11-19T02:03:43;7.90;99.90
15556;DHT22;7879;48.660;9.116;2023-11-19T02:06:10;7.80;99.90
15556;DHT22;7879;48.660;9.116;2023-11-19T02:08:37;7.80;99.90
15556;DHT22;7879;48.660;9.116;2023-11-19T02:11:05;7.90;99.90
15556;DHT22;7879;48.660;9.116;2023-11-19T02:13:34;8.00;99.90
15556;DHT22;7879;48.660;9.116;2023-11-19T02:16:03;8.00;99.90
15556;DHT22;7879;48.660;9.116;2023-11-19T02:18:30;8.00;99.90
15556;DHT22;7879;48.660;9.116;2023-11-19T02:20:58;8.00;99.90
15556;DHT22;7879;48.660;9.116;2023-11-19T02:23:29;8.00;99.90
15556;DHT22;7879;48.660;9.116;2023-11-19T02:26:01;8.10;99.90
15556;DHT22;7879;48.660;9.116;2023-11-19T02:28:28;8.10;99.90
15556;DHT22;7879;48.660;9.116;2023-11-19T02:30:55;8.10;99.90
15556;DHT22;7879;48.660;9.116;2023-11-19T02:33:22;8.20;99.90
15556;DHT22;7879;48.660;9.116;2023-11-19T02:35:49;8.20;99.90
15556;DHT22;7879;48.660;9.116;2023-11-19T02:38:16;8.20;99.90
15556;DHT22;7879;48.660;9.116;2023-11-19T02:40:43;8.20;99.90
15556;DHT22;7879;48.660;9.116;2023-11-19T02:43:10;8.20;99.90
15556;DHT22;7879;48.660;9.116;2023-11-19T02:45:36;8.30;99.90
15556;DHT22;7879;48.660;9.116;2023-11-19T02:48:04;8.30;99.90
15556;DHT22;7879;48.660;9.116;2023-11-19T02:50:32;8.30;99.90
15556;DHT22;7879;48.660;9.116;2023-11-19T02:52:59;8.30;99.90
15556;DHT22;7879;48.660;9.116;2023-11-19T02:55:27;8.30;99.90
15556;DHT22;7879;48.660;9.116;2023-11-19T02:57:57;8.40;99.90
15556;DHT22;7879;48.660;9.116;2023-11-19T03:00:26;8.40;99.90
15556;DHT22;7879;48.660;9.116;2023-11-19T03:03:00;8.40;99.90
15556;DHT22;7879;48.660;9.116;2023-11-19T03:05:36;8.40;99.90
15556;DHT22;7879;48.660;9.116;2023-11-19T03:08:03;8.60;99.90
15556;DHT22;7879;48.660;9.116;2023-11-19T03:10:30;8.60;99.90
15556;DHT22;7879;48.660;9.116;2023-11-19T03:12:57;8.50;99.90
15556;DHT22;7879;48.660;9.116;2023-11-19T03:15:24;8.50;99.90
15556;DHT22;7879;48.660;9.116;2023-11-19T03:17:51;8.70;99.90
15556;DHT22;7879;48.660;9.116;2023-11-19T03:20:18;8.60;99.90
15556;DHT22;7879;48.660;9.116;2023-11-19T03:22:45;8.60;99.90
15556;DHT22;7879;48.660;9.116;2023-11-19T03:25:12;8.60;99.90
15556;DHT22;7879;48.660;9.116;2023-11-19T03:27:40;8.60;99.90
15556;DHT22;7879;48.660;9.116;2023-11-19T03:30:09;8.60;99.90
15556;DHT22;7879;48.660;9.116;2023-11-19T03:32:36;8.60;99.90
15556;DHT22;7879;48.660;9.116;2023-11-19T03:35:03;8.70;99.90
15556;DHT22;7879;48.660;9.116;2023-11-19T03:37:36;8.70;99.90
15556;DHT22;7879;48.660;9.116;2023-11-19T03:40:03;8.70;99.90
15556;DHT22;7879;48.660;9.116;2023-11-19T03:42:31;8.70;99.90
15556;DHT22;7879;48.660;9.116;2023-11-19T03:44:58;8.70;99.90
15556;DHT22;7879;48.660;9.116;2023-11-19T03:47:25;8.70;99.90
15556;DHT22;7879;48.660;9.116;2023-11-19T03:49:52;8.70;99.90
15556;DHT22;7879;48.660;9.116;2023-11-19T03:52:19;8.80;99.90
15556;DHT22;7879;48.660;9.116;2023-11-19T03:54:47;8.80;99.90
15556;DHT22;7879;48.660;9.116;2023-11-19T03:57:14;8.80;99.90
15556;DHT22;7879;48.660;9.116;2023-11-19T03:59:42;8.80;99.90
15556;DHT22;7879;48.660;9.116;2023-11-19T04:02:09;8.80;99.90
15556;DHT22;7879;48.660;9.116;2023-11-19T04:04:36;8.90;99.90
15556;DHT22;7879;48.660;9.116;2023-11-19T04:07:05;8.80;99.90
15556;DHT22;7879;48.660;9.116;2023-11-19T04:09:32;8.80;99.90
15556;DHT22;7879;48.660;9.116;2023-11-19T04:12:00;8.90;99.90
15556;DHT22;7879;48.660;9.116;2023-11-19T04:14:27;8.80;99.90
15556;DHT22;7879;48.660;9.116;2023-11-19T04:16:54;8.80;99.90
15556;DHT22;7879;48.660;9.116;2023-11-19T04:19:21;8.90;99.90
15556;DHT22;7879;48.660;9.116;2023-11-19T04:21:48;8.90;99.90
15556;DHT22;7879;48.660;9.116;2023-11-19T04:24:15;8.90;99.90
15556;DHT22;7879;48.660;9.116;2023-11-19T04:26:43;8.90;99.90
15556;DHT22;7879;48.660;9.116;2023-11-19T04:29:15;8.90;99.90
15556;DHT22;7879;48.660;9.116;2023-11-19T04:31:46;8.90;99.90
15556;DHT22;7879;48.660;9.116;2023-11-19T04:34:13;9.00;99.90
15556;DHT22;7879;48.660;9.116;2023-11-19T04:36:39;9.00;99.90
15556;DHT22;7879;48.660;9.116;2023-11-19T04:39:06;9.00;99.90
15556;DHT22;7879;48.660;9.116;2023-11-19T04:41:51;9.00;99.90
15556;DHT22;7879;48.660;9.116;2023-11-19T04:44:20;9.00;99.90
15556;DHT22;7879;48.660;9.116;2023-11-19T04:46:47;9.10;99.90
15556;DHT22;7879;48.660;9.116;2023-11-19T04:49:14;9.10;99.90
15556;DHT22;7879;48.660;9.116;2023-11-19T04:51:41;9.10;99.90
15556;DHT22;7879;48.660;9.116;2023-11-19T04:54:14;9.10;99.90
15556;DHT22;7879;48.660;9.116;2023-11-19T04:56:45;9.20;99.90
15556;DHT22;7879;48.660;9.116;2023-11-19T04:59:12;9.20;99.90
15556;DHT22;7879;48.660;9.116;2023-11-19T05:01:40;9.20;99.90
15556;DHT22;7879;48.660;9.116;2023-11-19T05:04:07;9.20;99.90
15556;DHT22;7879;48.660;9.116;2023-11-19T05:06:35;9.20;99.90
15556;DHT22;7879;48.660;9.116;2023-11-19T05:09:02;9.20;99.90
15556;DHT22;7879;48.660;9.116;2023-11-19T05:11:35;9.30;99.90
15556;DHT22;7879;48.660;9.116;2023-11-19T05:14:05;9.30;99.90
15556;DHT22;7879;48.660;9.116;2023-11-19T05:16:31;9.30;99.90
15556;DHT22;7879;48.660;9.116;2023-11-19T05:18:59;9.40;99.90
15556;DHT22;7879;48.660;9.116;2023-11-19T05:21:26;9.40;99.90
15556;DHT22;7879;48.660;9.116;2023-11-19T05:23:52;9.40;99.90
15556;DHT22;7879;48.660;9.116;2023-11-19T05:26:22;9.40;99.90
15556;DHT22;7879;48.660;9.116;2023-11-19T05:28:50;9.40;99.90
15556;DHT22;7879;48.660;9.116;2023-11-19T05:31:18;9.40;99.90
15556;DHT22;7879;48.660;9.116;2023-11-19T05:33:45;9.40;99.90
15556;DHT22;7879;48.660;9.116;2023-11-19T05:36:12;9.50;99.90
15556;DHT22;7879;48.660;9.116;2023-11-19T05:38:40;9.50;99.90
15556;DHT22;7879;48.660;9.116;2023-11-19T05:41:06;9.50;99.90
15556;DHT22;7879;48.660;9.116;2023-11-19T05:43:33;9.50;99.90
15556;DHT22;7879;48.660;9.116;2023-11-19T05:46:00;9.50;99.90
15556;DHT22;7879;48.660;9.116;2023-11-19T05:48:28;9.50;99.90
15556;DHT22;7879;48.660;9.116;2023-11-19T05:50:55;9.50;99.90
15556;DHT22;7879;48.660;9.116;2023-11-19T05:53:22;9.50;99.90
15556;DHT22;7879;48.660;9.116;2023-11-19T05:55:49;9.50;99.90
15556;DHT22;7879;48.660;9.116;2023-11-19T05:58:25;9.50;99.90
15556;DHT22;7879;48.660;9.116;2023-11-19T06:00:53;9.50;99.90
15556;DHT22;7879;48.660;9.116;2023-11-19T06:03:19;9.60;99.90
15556;DHT22;7879;48.660;9.116;2023-11-19T06:05:49;9.50;99.90
15556;DHT22;7879;48.660;9.116;2023-11-19T06:08:16;9.50;99.90
15556;DHT22;7879;48.660;9.116;2023-11-19T06:10:44;9.50;99.90
15556;DHT22;7879;48.660;9.116;2023-11-19T06:13:13;9.60;99.90
15556;DHT22;7879;48.660;9.116;2023-11-19T06:15:42;9.50;99.90
15556;DHT22;7879;48.660;9.116;2023-11-19T06:18:09;9.60;99.90
15556;DHT22;7879;48.660;9.116;2023-11-19T06:20:38;9.60;99.90
15556;DHT22;7879;48.660;9.116;2023-11-19T06:23:08;9.60;99.90
15556;DHT22;7879;48.660;9.116;2023-11-19T06:25:35;9.60;99.90
15556;DHT22;7879;48.660;9.116;2023-11-19T06:28:03;9.70;99.90
15556;DHT22;7879;48.660;9.116;2023-11-19T06:30:30;9.70;99.90
15556;DHT22;7879;48.660;9.116;2023-11-19T06:32:59;9.70;99.90
15556;DHT22;7879;48.660;9.116;2023-11-19T06:35:26;9.70;99.90
15556;DHT22;7879;48.660;9.116;2023-11-19T06:37:55;9.70;99.90
15556;DHT22;7879;48.660;9.116;2023-11-19T06:40:22;9.70;99.90
15556;DHT22;7879;48.660;9.116;2023-11-19T06:42:49;9.70;99.90
15556;DHT22;7879;48.660;9.116;2023-11-19T06:45:18;9.70;99.90
15556;DHT22;7879;48.660;9.116;2023-11-19T06:47:45;9.70;99.90
15556;DHT22;7879;48.660;9.116;2023-11-19T06:50:12;9.70;99.90
15556;DHT22;7879;48.660;9.116;2023-11-19T06:52:39;9.70;99.90
15556;DHT22;7879;48.660;9.116;2023-11-19T06:55:07;9.70;99.90
15556;DHT22;7879;48.660;9.116;2023-11-19T06:57:35;9.70;99.90
15556;DHT22;7879;48.660;9.116;2023-11-19T07:00:02;9.70;99.90
15556;DHT22;7879;48.660;9.116;2023-11-19T07:02:29;9.70;99.90
15556;DHT22;7879;48.660;9.116;2023-11-19T07:04:57;9.70;99.90
15556;DHT22;7879;48.660;9.116;2023-11-19T07:07:23;9.80;99.90
15556;DHT22;7879;48.660;9.116;2023-11-19T07:09:50;9.80;99.90
15556;DHT22;7879;48.660;9.116;2023-11-19T07:12:17;9.90;99.90
15556;DHT22;7879;48.660;9.116;2023-11-19T07:14:44;9.80;99.90
15556;DHT22;7879;48.660;9.116;2023-11-19T07:17:11;9.80;99.90
15556;DHT22;7879;48.660;9.116;2023-11-19T07:19:38;9.80;99.90
15556;DHT22;7879;48.660;9.116;2023-11-19T07:22:06;9.70;99.90
15556;DHT22;7879;48.660;9.116;2023-11-19T07:24:33;9.80;99.90
15556;DHT22;7879;48.660;9.116;2023-11-19T07:27:00;9.70;99.90
15556;DHT22;7879;48.660;9.116;2023-11-19T07:29:27;9.80;99.90
15556;DHT22;7879;48.660;9.116;2023-11-19T07:31:55;9.80;99.90
15556;DHT22;7879;48.660;9.116;2023-11-19T07:34:24;9.80;99.90
15556;DHT22;7879;48.660;9.116;2023-11-19T07:36:52;9.80;99.90
15556;DHT22;7879;48.660;9.116;2023-11-19T07:39:19;9.80;99.90
15556;DHT22;7879;48.660;9.116;2023-11-19T07:41:49;9.80;99.90
15556;DHT22;7879;48.660;9.116;2023-11-19T07:44:16;9.90;99.90
15556;DHT22;7879;48.660;9.116;2023-11-19T07:46:43;9.90;99.90
15556;DHT22;7879;48.660;9.116;2023-11-19T07:49:11;9.90;99.90
15556;DHT22;7879;48.660;9.116;2023-11-19T07:51:38;9.80;99.90
15556;DHT22;7879;48.660;9.116;2023-11-19T07:54:05;9.90;99.90
15556;DHT22;7879;48.660;9.116;2023-11-19T07:56:33;10.00;99.90
15556;DHT22;7879;48.660;9.116;2023-11-19T07:59:04;10.00;99.90
15556;DHT22;7879;48.660;9.116;2023-11-19T08:01:31;10.00;99.90
15556;DHT22;7879;48.660;9.116;2023-11-19T08:03:58;10.00;99.90
15556;DHT22;7879;48.660;9.116;2023-11-19T08:06:26;10.00;99.90
15556;DHT22;7879;48.660;9.116;2023-11-19T08:08:53;10.10;99.90
15556;DHT22;7879;48.660;9.116;2023-11-19T08:11:20;10.10;99.90
15556;DHT22;7879;48.660;9.116;2023-11-19T08:13:47;10.10;99.90
15556;DHT22;7879;48.660;9.116;2023-11-19T08:16:14;10.10;99.90
15556;DHT22;7879;48.660;9.116;2023-11-19T08:18:43;10.10;99.90
15556;DHT22;7879;48.660;9.116;2023-11-19T08:21:10;10.20;99.90
15556;DHT22;7879;48.660;9.116;2023-11-19T08:23:37;10.20;99.90
15556;DHT22;7879;48.660;9.116;2023-11-19T08:26:05;10.30;99.90
15556;DHT22;7879;48.660;9.116;2023-11-19T08:28:33;10.30;99.90
15556;DHT22;7879;48.660;9.116;2023-11-19T08:31:02;10.30;99.90
15556;DHT22;7879;48.660;9.116;2023-11-19T08:33:31;10.30;99.90
15556;DHT22;7879;48.660;9.116;2023-11-19T08:35:58;10.30;99.90
15556;DHT22;7879;48.660;9.116;2023-11-19T08:38:25;10.30;99.90
15556;DHT22;7879;48.660;9.116;2023-11-19T08:40:55;10.40;99.90
15556;DHT22;7879;48.660;9.116;2023-11-19T08:43:26;10.50;99.90
15556;DHT22;7879;48.660;9.116;2023-11-19T08:45:53;10.60;99.90
15556;DHT22;7879;48.660;9.116;2023-11-19T08:48:21;10.90;99.90
15556;DHT22;7879;48.660;9.116;2023-11-19T08:50:48;11.00;99.90
15556;DHT22;7879;48.660;9.116;2023-11-19T08:53:15;11.10;99.90
15556;DHT22;7879;48.660;9.116;2023-11-19T08:55:42;11.10;99.90
15556;DHT22;7879;48.660;9.116;2023-11-19T08:58:09;11.20;99.90
15556;DHT22;7879;48.660;9.116;2023-11-19T09:00:36;11.40;99.90
15556;DHT22;7879;48.660;9.116;2023-11-19T09:03:03;11.40;99.90
15556;DHT22;7879;48.660;9.116;2023-11-19T09:05:30;11.50;99.90
15556;DHT22;7879;48.660;9.116;2023-11-19T09:08:06;11.60;99.90
15556;DHT22;7879;48.660;9.116;2023-11-19T09:10:33;11.60;99.90
15556;DHT22;7879;48.660;9.116;2023-11-19T09:13:00;11.70;99.90
15556;DHT22;7879;48.660;9.116;2023-11-19T09:15:26;11.70;99.90
15556;DHT22;7879;48.660;9.116;2023-11-19T09:17:53;11.80;99.90
15556;DHT22;7879;48.660;9.116;2023-11-19T09:20:20;12.00;99.90
15556;DHT22;7879;48.660;9.116;2023-11-19T09:22:47;12.20;99.90
15556;DHT22;7879;48.660;9.116;2023-11-19T09:25:14;12.20;99.90
15556;DHT22;7879;48.660;9.116;2023-11-19T09:27:44;12.10;99.90
15556;DHT22;7879;48.660;9.116;2023-11-19T09:30:11;12.00;99.90
15556;DHT22;7879;48.660;9.116;2023-11-19T09:32:39;11.90;99.90
15556;DHT22;7879;48.660;9.116;2023-11-19T09:35:07;11.80;99.90
15556;DHT22;7879;48.660;9.116;2023-11-19T09:37:34;11.80;99.90
15556;DHT22;7879;48.660;9.116;2023-11-19T09:40:01;11.90;99.90
15556;DHT22;7879;48.660;9.116;2023-11-19T09:42:28;12.00;99.90
15556;DHT22;7879;48.660;9.116;2023-11-19T09:44:56;12.10;99.90
15556;DHT22;7879;48.660;9.116;2023-11-19T09:47:25;12.00;99.90
15556;DHT22;7879;48.660;9.116;2023-11-19T09:49:54;12.20;99.90
15556;DHT22;7879;48.660;9.116;2023-11-19T09:52:24;12.20;99.90
15556;DHT22;7879;48.660;9.116;2023-11-19T09:54:51;12.30;99.90
15556;DHT22;7879;48.660;9.116;2023-11-19T09:57:18;12.30;99.90
15556;DHT22;7879;48.660;9.116;2023-11-19T09:59:46;12.60;99.90
15556;DHT22;7879;48.660;9.116;2023-11-19T10:02:14;12.80;99.90
15556;DHT22;7879;48.660;9.116;2023-11-19T10:04:42;12.80;99.90
15556;DHT22;7879;48.660;9.116;2023-11-19T10:07:11;12.60;99.90
15556;DHT22;7879;48.660;9.116;2023-11-19T10:09:38;12.40;99.90
15556;DHT22;7879;48.660;9.116;2023-11-19T10:12:05;12.40;99.90
15556;DHT22;7879;48.660;9.116;2023-11-19T10:14:33;12.60;99.90
15556;DHT22;7879;48.660;9.116;2023-11-19T10:17:03;12.80;99.90
15556;DHT22;7879;48.660;9.116;2023-11-19T10:19:31;12.70;99.90
15556;DHT22;7879;48.660;9.116;2023-11-19T10:22:03;12.80;99.90
15556;DHT22;7879;48.660;9.116;2023-11-19T10:24:34;12.90;99.90
15556;DHT22;7879;48.660;9.116;2023-11-19T10:27:07;12.80;99.90
15556;DHT22;7879;48.660;9.116;2023-11-19T10:29:38;12.90;99.90
15556;DHT22;7879;48.660;9.116;2023-11-19T10:32:05;13.00;99.90
15556;DHT22;7879;48.660;9.116;2023-11-19T10:34:52;13.10;99.90
15556;DHT22;7879;48.660;9.116;2023-11-19T10:37:28;13.30;99.90
15556;DHT22;7879;48.660;9.116;2023-11-19T10:39:58;13.30;99.90
15556;DHT22;7879;48.660;9.116;2023-11-19T10:42:25;13.30;99.90
15556;DHT22;7879;48.660;9.116;2023-11-19T10:44:52;13.20;99.90
15556;DHT22;7879;48.660;9.116;2023-11-19T10:47:19;13.20;99.90
15556;DHT22;7879;48.660;9.116;2023-11-19T10:49:46;13.40;99.90
15556;DHT22;7879;48.660;9.116;2023-11-19T10:52:18;13.70;99.90
15556;DHT22;7879;48.660;9.116;2023-11-19T10:54:51;14.00;99.90
15556;DHT22;7879;48.660;9.116;2023-11-19T10:57:20;14.20;99.90
15556;DHT22;7879;48.660;9.116;2023-11-19T10:59:55;14.00;99.90
15556;DHT22;7879;48.660;9.116;2023-11-19T11:02:25;13.90;99.90
15556;DHT22;7879;48.660;9.116;2023-11-19T11:04:54;13.80;99.90
15556;DHT22;7879;48.660;9.116;2023-11-19T11:07:22;13.70;99.90
15556;DHT22;7879;48.660;9.116;2023-11-19T11:10:06;13.60;99.90
15556;DHT22;7879;48.660;9.116;2023-11-19T11:12:37;13.50;99.90
15556;DHT22;7879;48.660;9.116;2023-11-19T11:15:07;13.50;99.90
15556;DHT22;7879;48.660;9.116;2023-11-19T11:17:35;13.50;99.90
15556;DHT22;7879;48.660;9.116;2023-11-19T11:20:04;13.40;99.90
15556;DHT22;7879;48.660;9.116;2023-11-19T11:22:55;13.40;99.90
15556;DHT22;7879;48.660;9.116;2023-11-19T11:31:29;13.20;99.90
15556;DHT22;7879;48.660;9.116;2023-11-19T11:34:28;13.20;99.90
15556;DHT22;7879;48.660;9.116;2023-11-19T11:39:40;13.10;99.90
15556;DHT22;7879;48.660;9.116;2023-11-19T11:45:18;13.00;99.90
15556;DHT22;7879;48.660;9.116;2023-11-19T11:48:15;13.00;99.90
15556;DHT22;7879;48.660;9.116;2023-11-19T11:50:54;13.10;99.90
15556;DHT22;7879;48.660;9.116;2023-11-19T11:53:22;13.10;99.90
15556;DHT22;7879;48.660;9.116;2023-11-19T11:58:26;13.10;99.90
15556;DHT22;7879;48.660;9.116;2023-11-19T12:00:53;13.10;99.90
15556;DHT22;7879;48.660;9.116;2023-11-19T12:03:21;13.10;99.90
15556;DHT22;7879;48.660;9.116;2023-11-19T12:05:48;13.20;99.90
15556;DHT22;7879;48.660;9.116;2023-11-19T12:08:20;13.20;99.90
15556;DHT22;7879;48.660;9.116;2023-11-19T12:10:54;13.20;99.90
15556;DHT22;7879;48.660;9.116;2023-11-19T12:13:25;13.20;99.90
15556;DHT22;7879;48.660;9.116;2023-11-19T12:18:27;13.30;99.90
15556;DHT22;7879;48.660;9.116;2023-11-19T12:20:55;13.30;99.90
15556;DHT22;7879;48.660;9.116;2023-11-19T12:23:23;13.40;99.90
15556;DHT22;7879;48.660;9.116;2023-11-19T12:25:50;13.40;99.90
15556;DHT22;7879;48.660;9.116;2023-11-19T12:28:17;13.40;99.90
15556;DHT22;7879;48.660;9.116;2023-11-19T12:30:45;13.30;99.90
15556;DHT22;7879;48.660;9.116;2023-11-19T12:33:13;13.30;99.90
15556;DHT22;7879;48.660;9.116;2023-11-19T12:35:42;13.30;99.90
15556;DHT22;7879;48.660;9.116;2023-11-19T12:38:25;13.30;99.90
15556;DHT22;7879;48.660;9.116;2023-11-19T12:41:05;13.40;99.90
15556;DHT22;7879;48.660;9.116;2023-11-19T12:43:32;13.30;99.90
15556;DHT22;7879;48.660;9.116;2023-11-19T12:46:20;13.30;99.90
15556;DHT22;7879;48.660;9.116;2023-11-19T12:48:49;13.40;99.90
15556;DHT22;7879;48.660;9.116;2023-11-19T12:51:16;13.40;99.90
15556;DHT22;7879;48.660;9.116;2023-11-19T12:53:48;13.40;99.90
15556;DHT22;7879;48.660;9.116;2023-11-19T12:56:16;13.40;99.90
15556;DHT22;7879;48.660;9.116;2023-11-19T12:58:43;13.40;99.90
15556;DHT22;7879;48.660;9.116;2023-11-19T13:01:16;13.40;99.90
15556;DHT22;7879;48.660;9.116;2023-11-19T13:03:43;13.50;99.90
15556;DHT22;7879;48.660;9.116;2023-11-19T13:06:14;13.50;99.90
15556;DHT22;7879;48.660;9.116;2023-11-19T13:08:44;13.40;99.90
15556;DHT22;7879;48.660;9.116;2023-11-19T13:11:30;13.30;99.90
15556;DHT22;7879;48.660;9.116;2023-11-19T13:14:04;13.30;99.90
15556;DHT22;7879;48.660;9.116;2023-11-19T13:16:32;13.40;99.90
15556;DHT22;7879;48.660;9.116;2023-11-19T13:18:59;13.50;99.90
15556;DHT22;7879;48.660;9.116;2023-11-19T13:21:29;13.50;99.90
15556;DHT22;7879;48.660;9.116;2023-11-19T13:23:57;13.50;99.90
15556;DHT22;7879;48.660;9.116;2023-11-19T13:26:23;13.50;99.90
15556;DHT22;7879;48.660;9.116;2023-11-19T13:28:50;13.50;99.90
15556;DHT22;7879;48.660;9.116;2023-11-19T13:31:18;13.50;99.90
15556;DHT22;7879;48.660;9.116;2023-11-19T13:33:45;13.50;99.90
15556;DHT22;7879;48.660;9.116;2023-11-19T13:36:12;13.50;99.90
15556;DHT22;7879;48.660;9.116;2023-11-19T13:38:43;13.50;99.90
15556;DHT22;7879;48.660;9.116;2023-11-19T13:41:12;13.50;99.90
15556;DHT22;7879;48.660;9.116;2023-11-19T13:43:40;13.50;99.90
15556;DHT22;7879;48.660;9.116;2023-11-19T13:46:07;13.50;99.90
15556;DHT22;7879;48.660;9.116;2023-11-19T13:48:36;13.40;99.90
15556;DHT22;7879;48.660;9.116;2023-11-19T13:51:04;13.30;99.90
15556;DHT22;7879;48.660;9.116;2023-11-19T13:53:32;13.30;99.90
15556;DHT22;7879;48.660;9.116;2023-11-19T13:56:17;13.30;99.90
15556;DHT22;7879;48.660;9.116;2023-11-19T13:58:44;13.20;99.90
15556;DHT22;7879;48.660;9.116;2023-11-19T14:01:11;13.20;99.90
15556;DHT22;7879;48.660;9.116;2023-11-19T14:03:40;13.20;99.90
15556;DHT22;7879;48.660;9.116;2023-11-19T14:06:08;13.10;99.90
15556;DHT22;7879;48.660;9.116;2023-11-19T14:08:36;13.10;99.90
15556;DHT22;7879;48.660;9.116;2023-11-19T14:11:03;13.10;99.90
15556;DHT22;7879;48.660;9.116;2023-11-19T14:13:30;13.20;99.90
15556;DHT22;7879;48.660;9.116;2023-11-19T14:15:57;13.20;99.90
15556;DHT22;7879;48.660;9.116;2023-11-19T14:18:24;13.20;99.90
15556;DHT22;7879;48.660;9.116;2023-11-19T14:20:51;13.20;99.90
15556;DHT22;7879;48.660;9.116;2023-11-19T14:23:17;13.20;99.90
15556;DHT22;7879;48.660;9.116;2023-11-19T14:25:44;13.20;99.90
15556;DHT22;7879;48.660;9.116;2023-11-19T14:28:11;13.10;99.90
15556;DHT22;7879;48.660;9.116;2023-11-19T14:30:38;13.10;99.90
15556;DHT22;7879;48.660;9.116;2023-11-19T14:33:05;13.10;99.90
15556;DHT22;7879;48.660;9.116;2023-11-19T14:35:32;13.00;99.90
15556;DHT22;7879;48.660;9.116;2023-11-19T14:38:00;13.00;99.90
15556;DHT22;7879;48.660;9.116;2023-11-19T14:40:31;13.00;99.90
15556;DHT22;7879;48.660;9.116;2023-11-19T14:43:00;13.00;99.90
15556;DHT22;7879;48.660;9.116;2023-11-19T14:45:27;12.90;99.90
15556;DHT22;7879;48.660;9.116;2023-11-19T14:48:02;12.90;99.90
15556;DHT22;7879;48.660;9.116;2023-11-19T14:50:28;12.90;99.90
15556;DHT22;7879;48.660;9.116;2023-11-19T14:52:55;12.80;99.90
15556;DHT22;7879;48.660;9.116;2023-11-19T14:55:22;12.70;99.90
15556;DHT22;7879;48.660;9.116;2023-11-19T14:57:49;12.70;99.90
15556;DHT22;7879;48.660;9.116;2023-11-19T15:00:31;12.60;99.90
15556;DHT22;7879;48.660;9.116;2023-11-19T15:03:00;12.60;99.90
15556;DHT22;7879;48.660;9.116;2023-11-19T15:05:28;12.50;99.90
15556;DHT22;7879;48.660;9.116;2023-11-19T15:07:56;12.40;99.90
15556;DHT22;7879;48.660;9.116;2023-11-19T15:10:23;12.40;99.90
15556;DHT22;7879;48.660;9.116;2023-11-19T15:12:52;12.40;99.90
15556;DHT22;7879;48.660;9.116;2023-11-19T15:15:20;12.30;99.90
15556;DHT22;7879;48.660;9.116;2023-11-19T15:17:50;12.30;99.90
15556;DHT22;7879;48.660;9.116;2023-11-19T15:20:17;12.20;99.90
15556;DHT22;7879;48.660;9.116;2023-11-19T15:22:46;12.20;99.90
15556;DHT22;7879;48.660;9.116;2023-11-19T15:25:16;12.20;99.90
15556;DHT22;7879;48.660;9.116;2023-11-19T15:27:44;12.10;99.90
15556;DHT22;7879;48.660;9.116;2023-11-19T15:30:11;12.10;99.90
15556;DHT22;7879;48.660;9.116;2023-11-19T15:32:40;12.00;99.90
15556;DHT22;7879;48.660;9.116;2023-11-19T15:35:09;11.90;99.90
15556;DHT22;7879;48.660;9.116;2023-11-19T15:37:40;11.90;99.90
15556;DHT22;7879;48.660;9.116;2023-11-19T15:40:11;11.90;99.90
15556;DHT22;7879;48.660;9.116;2023-11-19T15:42:41;11.80;99.90
15556;DHT22;7879;48.660;9.116;2023-11-19T15:45:13;11.70;99.90
15556;DHT22;7879;48.660;9.116;2023-11-19T15:47:40;11.70;99.90
15556;DHT22;7879;48.660;9.116;2023-11-19T15:50:07;11.60;99.90
15556;DHT22;7879;48.660;9.116;2023-11-19T15:52:37;11.60;99.90
15556;DHT22;7879;48.660;9.116;2023-11-19T15:55:05;11.50;99.90
15556;DHT22;7879;48.660;9.116;2023-11-19T15:57:34;11.40;99.90
15556;DHT22;7879;48.660;9.116;2023-11-19T16:00:03;11.40;99.90
15556;DHT22;7879;48.660;9.116;2023-11-19T16:02:32;11.30;99.90
15556;DHT22;7879;48.660;9.116;2023-11-19T16:05:00;11.20;99.90
15556;DHT22;7879;48.660;9.116;2023-11-19T16:07:28;11.20;99.90
15556;DHT22;7879;48.660;9.116;2023-11-19T16:09:59;11.10;99.90
15556;DHT22;7879;48.660;9.116;2023-11-19T16:12:26;11.10;99.90
15556;DHT22;7879;48.660;9.116;2023-11-19T16:14:53;11.00;99.90
15556;DHT22;7879;48.660;9.116;2023-11-19T16:17:20;11.00;99.90
15556;DHT22;7879;48.660;9.116;2023-11-19T16:19:49;10.90;99.90
15556;DHT22;7879;48.660;9.116;2023-11-19T16:22:20;10.90;99.90
15556;DHT22;7879;48.660;9.116;2023-11-19T16:24:50;10.90;99.90